Time;durP1;ratioP1;P1;durP2;ratioP2;P2;SDS_P1;SDS_P2;PMS_P1;PMS_P2;Temp;Humidity;BMP_temperature;BMP_pressure;BME280_temperature;BME280_humidity;BME280_pressure;Samples;Min_cycle;Max_cycle;Signal;HPM_P1;HPM_P2
2023/01/16 00:01:24;;;;;;;1.50;1.33;;;8.60;52.80;;;;;;5004715;28;20536;-60
2023/01/16 00:03:50;;;;;;;2.63;1.10;;;8.60;52.60;;;;;;5004321;28;20449;-59
2023/01/16 00:06:15;;;;;;;2.60;1.17;;;8.50;52.40;;;;;;4995558;28;20966;-60
2023/01/16 00:08:42;;;;;;;2.90;1.07;;;8.50;52.70;;;;;;5008721;28;20198;-60
2023/01/16 00:11:08;;;;;;;1.80;1.23;;;8.50;52.60;;;;;;4999585;28;20210;-60
2023/01/16 00:13:33;;;;;;;1.80;1.40;;;8.50;52.70;;;;;;4995343;28;20446;-60
2023/01/16 00:15:59;;;;;;;3.03;1.00;;;8.60;52.70;;;;;;5000201;28;20265;-60
2023/01/16 00:18:25;;;;;;;3.47;1.37;;;8.60;52.50;;;;;;5001284;28;20260;-60
2023/01/16 00:20:51;;;;;;;2.40;0.93;;;8.70;52.50;;;;;;5010592;28;20221;-60
2023/01/16 00:23:16;;;;;;;1.50;1.10;;;8.70;52.10;;;;;;5004887;28;20217;-60
2023/01/16 00:25:43;;;;;;;4.23;1.20;;;8.70;52.10;;;;;;5009522;28;20766;-60
2023/01/16 00:28:11;;;;;;;3.43;1.17;;;8.80;52.10;;;;;;5002829;28;20595;-60
2023/01/16 00:30:37;;;;;;;4.63;1.17;;;8.90;52.00;;;;;;5012783;28;20547;-60
2023/01/16 00:33:03;;;;;;;1.77;1.07;;;9.10;51.70;;;;;;5007942;28;20457;-60
2023/01/16 00:35:29;;;;;;;1.20;0.70;;;9.10;51.30;;;;;;4996613;28;20441;-60
2023/01/16 00:37:55;;;;;;;2.00;1.27;;;9.20;51.30;;;;;;5012286;28;20523;-60
2023/01/16 00:40:21;;;;;;;2.07;1.33;;;9.20;51.20;;;;;;5005902;28;20457;-60
2023/01/16 00:42:46;;;;;;;4.73;1.10;;;9.20;51.70;;;;;;4999840;28;20249;-60
2023/01/16 00:45:12;;;;;;;3.23;1.00;;;9.30;50.90;;;;;;5010585;28;20240;-60
2023/01/16 00:47:38;;;;;;;4.00;1.87;;;9.20;50.70;;;;;;5007571;28;20321;-60
2023/01/16 00:50:04;;;;;;;4.90;1.30;;;9.20;50.90;;;;;;5012454;28;20190;-59
2023/01/16 00:52:30;;;;;;;2.43;1.13;;;9.10;51.10;;;;;;5012562;28;20437;-60
2023/01/16 00:54:55;;;;;;;2.97;1.27;;;9.10;51.10;;;;;;5008631;28;20437;-60
2023/01/16 00:57:21;;;;;;;1.57;0.90;;;9.20;51.10;;;;;;5000473;28;20238;-59
2023/01/16 00:59:47;;;;;;;3.33;0.90;;;9.10;51.10;;;;;;5010401;28;20197;-60
2023/01/16 01:02:13;;;;;;;3.30;1.30;;;9.10;51.50;;;;;;5001783;28;20453;-60
2023/01/16 01:04:39;;;;;;;1.27;0.90;;;9.10;51.30;;;;;;5013229;28;20216;-60
2023/01/16 01:07:05;;;;;;;1.97;1.23;;;9.00;51.30;;;;;;5013792;28;20440;-60
2023/01/16 01:09:30;;;;;;;2.30;1.00;;;9.20;51.20;;;;;;5014125;28;20197;-60
2023/01/16 01:11:57;;;;;;;1.90;1.03;;;9.00;50.90;;;;;;5008195;28;20244;-60
2023/01/16 01:14:22;;;;;;;3.37;1.40;;;9.00;51.20;;;;;;5006602;28;20198;-59
2023/01/16 01:16:48;;;;;;;1.37;1.03;;;8.80;51.30;;;;;;5005197;28;20974;-59
2023/01/16 01:19:14;;;;;;;2.20;1.33;;;8.70;51.80;;;;;;5011569;28;20194;-60
2023/01/16 01:21:40;;;;;;;2.70;1.30;;;8.50;52.00;;;;;;5001683;28;20190;-59
2023/01/16 01:24:05;;;;;;;2.30;1.27;;;8.20;52.60;;;;;;5013185;28;20229;-60
2023/01/16 01:26:31;;;;;;;2.17;1.43;;;8.20;53.00;;;;;;5002114;28;20697;-60
2023/01/16 01:28:56;;;;;;;5.80;1.93;;;8.30;52.80;;;;;;5012808;28;20198;-60
2023/01/16 01:31:22;;;;;;;2.00;1.20;;;8.30;52.90;;;;;;5007185;28;20281;-59
2023/01/16 01:33:48;;;;;;;0.80;0.80;;;8.40;52.60;;;;;;5010789;28;20642;-60
2023/01/16 01:36:13;;;;;;;3.30;1.10;;;8.50;52.60;;;;;;5004979;28;20194;-60
2023/01/16 01:38:39;;;;;;;4.63;1.23;;;8.30;52.70;;;;;;5009291;28;21075;-60
2023/01/16 01:41:05;;;;;;;1.67;1.03;;;8.20;53.00;;;;;;5001121;28;20611;-60
2023/01/16 01:43:46;;;;;;;1.80;0.90;;;8.40;52.80;;;;;;5006033;28;20198;-60
2023/01/16 01:46:44;;;;;;;1.77;0.90;;;8.40;52.80;;;;;;5004578;28;20461;-60
2023/01/16 01:49:29;;;;;;;1.77;1.10;;;8.50;52.80;;;;;;5007347;28;20576;-60
2023/01/16 01:51:59;;;;;;;4.37;1.43;;;8.20;53.10;;;;;;5006867;28;20491;-60
2023/01/16 01:54:32;;;;;;;1.50;0.90;;;8.20;53.30;;;;;;5003300;28;20811;-59
2023/01/16 01:57:07;;;;;;;2.27;0.90;;;8.20;53.00;;;;;;4998704;28;20481;-60
2023/01/16 01:59:38;;;;;;;1.60;1.00;;;8.10;53.40;;;;;;5026820;28;20452;-60
2023/01/16 02:02:06;;;;;;;3.13;1.07;;;8.10;53.40;;;;;;5012331;28;20444;-60
2023/01/16 02:04:36;;;;;;;1.33;0.90;;;8.00;53.60;;;;;;5012757;28;20449;-60
2023/01/16 02:07:04;;;;;;;1.20;1.00;;;8.10;53.80;;;;;;5000344;28;20433;-60
2023/01/16 02:09:30;;;;;;;2.00;0.80;;;8.00;53.50;;;;;;4999872;28;20532;-60
2023/01/16 02:12:00;;;;;;;0.80;0.70;;;8.00;53.80;;;;;;5006298;28;20535;-60
2023/01/16 02:14:27;;;;;;;2.07;0.80;;;8.00;53.90;;;;;;5003763;28;20964;-60
2023/01/16 02:20:04;;;;;;;2.70;1.00;;;7.70;54.30;;;;;;4998382;28;20474;-60
2023/01/16 02:23:06;;;;;;;1.27;0.93;;;7.70;54.40;;;;;;5006287;28;20500;-60
2023/01/16 02:25:41;;;;;;;2.60;1.00;;;7.90;54.60;;;;;;5002506;28;20440;-60
2023/01/16 02:28:34;;;;;;;2.70;1.00;;;7.90;54.40;;;;;;5007489;28;20586;-60
2023/01/16 02:31:44;;;;;;;3.13;1.17;;;7.60;54.70;;;;;;5001549;28;20456;-60
2023/01/16 02:34:31;;;;;;;1.23;1.13;;;7.30;55.50;;;;;;5002688;28;20852;-60
2023/01/16 02:37:33;;;;;;;2.00;1.20;;;7.30;55.70;;;;;;5009228;28;20955;-60
2023/01/16 02:40:22;;;;;;;3.50;1.20;;;7.40;55.60;;;;;;5007441;28;20798;-60
2023/01/16 02:42:53;;;;;;;2.03;1.50;;;7.30;56.00;;;;;;5001056;28;20461;-60
2023/01/16 02:45:27;;;;;;;2.20;1.03;;;7.40;55.90;;;;;;5003600;28;20790;-59
2023/01/16 02:48:08;;;;;;;1.80;1.20;;;7.40;55.70;;;;;;5009240;28;20480;-60
2023/01/16 02:50:57;;;;;;;1.43;1.20;;;7.60;55.50;;;;;;5006940;28;20430;-59
2023/01/16 02:53:36;;;;;;;1.50;1.20;;;7.70;55.00;;;;;;5008124;28;20440;-60
2023/01/16 02:56:08;;;;;;;2.20;1.10;;;7.70;54.90;;;;;;5004129;28;20461;-60
2023/01/16 02:58:41;;;;;;;1.53;0.80;;;7.80;54.60;;;;;;4998535;28;20489;-60
2023/01/16 03:01:07;;;;;;;1.90;1.00;;;8.00;54.30;;;;;;5004969;28;20546;-60
2023/01/16 03:03:50;;;;;;;3.80;0.80;;;8.00;54.30;;;;;;5004832;28;20452;-60
2023/01/16 03:06:19;;;;;;;1.90;0.97;;;8.10;54.00;;;;;;4998974;28;20445;-60
2023/01/16 03:09:13;;;;;;;1.37;0.90;;;8.00;54.30;;;;;;5007593;28;20441;-60
2023/01/16 03:12:09;;;;;;;0.90;0.90;;;8.00;54.10;;;;;;5001219;28;20527;-60
2023/01/16 03:15:03;;;;;;;2.03;0.80;;;7.90;54.40;;;;;;5009213;28;20442;-60
2023/01/16 03:17:41;;;;;;;2.37;0.90;;;7.70;54.60;;;;;;5003926;28;20852;-60
2023/01/16 03:20:18;;;;;;;1.53;0.80;;;7.60;55.40;;;;;;5002801;28;20445;-60
2023/01/16 03:22:58;;;;;;;1.53;0.93;;;7.70;54.90;;;;;;5009066;28;20999;-60
2023/01/16 03:25:41;;;;;;;2.43;1.20;;;7.60;54.70;;;;;;5006620;28;20453;-60
2023/01/16 03:28:06;;;;;;;1.37;0.80;;;7.60;55.20;;;;;;5004021;28;20748;-60
2023/01/16 03:30:59;;;;;;;1.63;0.90;;;7.80;54.90;;;;;;5005380;28;20961;-59
2023/01/16 03:33:43;;;;;;;2.20;1.07;;;7.70;54.60;;;;;;5006919;28;20205;-60
2023/01/16 03:36:29;;;;;;;4.13;1.63;;;7.70;54.70;;;;;;5009159;28;20972;-59
2023/01/16 03:38:57;;;;;;;1.30;0.90;;;7.70;54.90;;;;;;5007462;28;20496;-60
2023/01/16 03:41:25;;;;;;;2.30;1.20;;;7.60;55.00;;;;;;5009199;28;20476;-60
2023/01/16 03:43:55;;;;;;;1.80;1.13;;;7.80;54.90;;;;;;5005601;28;20445;-60
2023/01/16 03:46:29;;;;;;;2.93;1.00;;;7.90;54.50;;;;;;5001834;28;20481;-60
2023/01/16 03:49:21;;;;;;;1.17;0.77;;;8.00;54.10;;;;;;5009877;28;20484;-60
2023/01/16 03:51:51;;;;;;;3.40;1.10;;;8.00;54.10;;;;;;4995886;28;20521;-59
2023/01/16 03:54:49;;;;;;;1.50;0.87;;;7.80;54.20;;;;;;5004122;28;20440;-60
2023/01/16 03:57:17;;;;;;;6.90;1.30;;;7.80;54.50;;;;;;4993407;28;20480;-60
2023/01/16 03:59:45;;;;;;;2.30;1.00;;;7.70;54.60;;;;;;4997852;28;20446;-60
2023/01/16 04:02:16;;;;;;;5.27;0.80;;;7.70;54.50;;;;;;5005287;28;20441;-59
2023/01/16 04:04:53;;;;;;;1.03;0.90;;;7.90;54.20;;;;;;5006245;28;20456;-60
2023/01/16 04:07:35;;;;;;;1.20;1.10;;;8.10;54.00;;;;;;4998332;28;20449;-60
2023/01/16 04:10:04;;;;;;;1.53;0.93;;;8.30;53.60;;;;;;4997679;28;20456;-60
2023/01/16 04:12:35;;;;;;;1.10;1.00;;;8.20;52.90;;;;;;5006223;28;20482;-60
2023/01/16 04:15:05;;;;;;;3.07;0.90;;;8.20;53.20;;;;;;5006276;28;20783;-59
2023/01/16 04:17:30;;;;;;;1.80;1.23;;;8.00;53.10;;;;;;5006692;28;20970;-59
2023/01/16 04:19:56;;;;;;;1.83;0.70;;;7.90;53.70;;;;;;4997203;28;20429;-59
2023/01/16 04:22:25;;;;;;;2.63;1.00;;;7.80;54.00;;;;;;5005704;28;20623;-59
2023/01/16 04:24:54;;;;;;;2.80;0.97;;;7.50;54.40;;;;;;4994680;28;20457;-60
2023/01/16 04:27:20;;;;;;;0.70;0.70;;;7.50;54.30;;;;;;4999326;28;20498;-59
2023/01/16 04:29:46;;;;;;;1.93;0.70;;;7.40;54.90;;;;;;5005918;28;20441;-59
2023/01/16 04:32:12;;;;;;;1.20;0.93;;;7.40;55.10;;;;;;4998757;28;20529;-59
2023/01/16 04:34:37;;;;;;;0.83;0.80;;;7.20;55.00;;;;;;5000773;28;20457;-59
2023/01/16 04:37:04;;;;;;;1.53;0.87;;;7.30;55.30;;;;;;5010076;28;20229;-60
2023/01/16 04:39:29;;;;;;;4.00;0.97;;;7.40;54.90;;;;;;5004903;28;20203;-60
2023/01/16 04:41:55;;;;;;;2.57;1.23;;;7.30;55.10;;;;;;5002026;28;20995;-59
2023/01/16 04:44:20;;;;;;;2.43;0.80;;;7.20;55.10;;;;;;4995540;28;20198;-59
2023/01/16 04:46:46;;;;;;;1.13;0.70;;;7.10;55.50;;;;;;4996415;28;20198;-60
2023/01/16 04:49:12;;;;;;;0.90;0.67;;;7.20;55.20;;;;;;4998891;28;20295;-60
2023/01/16 04:51:38;;;;;;;5.27;1.60;;;7.40;55.00;;;;;;5008238;28;20317;-60
2023/01/16 04:54:06;;;;;;;4.00;1.20;;;7.60;54.50;;;;;;4999519;28;20194;-59
2023/01/16 04:56:33;;;;;;;1.00;0.90;;;7.50;54.40;;;;;;4998263;28;20434;-59
2023/01/16 04:58:58;;;;;;;1.83;0.83;;;7.60;54.40;;;;;;5008650;28;20516;-60
2023/01/16 05:01:24;;;;;;;1.20;0.87;;;7.40;54.30;;;;;;5001310;28;20479;-59
2023/01/16 05:03:50;;;;;;;1.20;0.70;;;7.40;54.90;;;;;;4994516;28;20281;-60
2023/01/16 05:06:16;;;;;;;2.40;1.03;;;7.50;54.60;;;;;;5002642;28;20982;-60
2023/01/16 05:08:42;;;;;;;2.80;1.10;;;7.60;54.40;;;;;;5006254;28;20441;-60
2023/01/16 05:11:08;;;;;;;2.50;0.90;;;7.40;54.20;;;;;;5007575;28;20277;-60
2023/01/16 05:13:34;;;;;;;4.83;1.07;;;7.20;54.80;;;;;;5002665;28;20576;-59
2023/01/16 05:15:59;;;;;;;2.20;0.70;;;7.20;55.10;;;;;;5005787;28;21121;-60
2023/01/16 05:18:25;;;;;;;2.97;0.90;;;7.40;55.10;;;;;;5000325;28;20697;-60
2023/01/16 05:20:51;;;;;;;0.80;0.73;;;7.40;54.80;;;;;;5011559;28;20642;-59
2023/01/16 05:23:17;;;;;;;2.90;1.57;;;7.20;54.60;;;;;;5008750;28;20452;-60
2023/01/16 05:25:43;;;;;;;2.00;1.40;;;7.00;55.60;;;;;;5000745;28;20193;-59
2023/01/16 05:28:09;;;;;;;1.23;1.13;;;7.10;55.80;;;;;;5012409;28;20244;-59
2023/01/16 05:30:35;;;;;;;2.70;1.20;;;7.00;56.00;;;;;;5003975;28;20477;-59
2023/01/16 05:33:02;;;;;;;1.60;1.10;;;6.90;56.40;;;;;;5006645;28;20617;-60
2023/01/16 05:35:27;;;;;;;3.43;1.60;;;6.80;56.50;;;;;;5005196;28;20441;-59
2023/01/16 05:37:53;;;;;;;5.20;1.20;;;6.70;56.60;;;;;;5011218;28;20484;-59
2023/01/16 05:40:19;;;;;;;2.33;2.10;;;6.50;57.10;;;;;;5012530;28;20206;-59
2023/01/16 05:42:47;;;;;;;1.97;1.87;;;6.20;57.90;;;;;;5007365;28;20213;-60
2023/01/16 05:45:13;;;;;;;1.43;1.20;;;6.00;58.60;;;;;;5012100;28;20225;-59
2023/01/16 05:47:38;;;;;;;1.37;1.27;;;6.00;58.60;;;;;;5009142;28;20502;-59
2023/01/16 05:50:04;;;;;;;3.03;1.50;;;5.90;58.60;;;;;;5012177;28;20194;-59
2023/01/16 05:52:30;;;;;;;2.23;1.33;;;5.90;58.90;;;;;;5013145;28;20202;-59
2023/01/16 05:54:56;;;;;;;1.70;1.10;;;5.90;59.10;;;;;;5006921;28;20611;-59
2023/01/16 05:57:22;;;;;;;1.60;1.20;;;5.80;59.30;;;;;;5001000;28;20230;-60
2023/01/16 05:59:49;;;;;;;1.20;1.10;;;5.70;59.60;;;;;;4996628;28;20195;-59
2023/01/16 06:02:15;;;;;;;3.90;1.30;;;5.70;59.80;;;;;;4996147;28;20445;-59
2023/01/16 06:04:40;;;;;;;2.10;1.57;;;5.80;59.90;;;;;;5008948;28;20471;-59
2023/01/16 06:07:06;;;;;;;2.10;1.33;;;5.70;59.70;;;;;;5007386;28;20975;-59
2023/01/16 06:09:32;;;;;;;1.90;1.10;;;5.70;60.00;;;;;;5004964;28;20214;-59
2023/01/16 06:11:57;;;;;;;3.80;1.47;;;5.60;60.10;;;;;;5000096;28;20198;-59
2023/01/16 06:14:23;;;;;;;4.57;1.50;;;5.50;60.40;;;;;;5000177;28;20198;-60
2023/01/16 06:16:49;;;;;;;2.23;0.87;;;5.90;66.20;;;;;;5001809;28;20215;-60
2023/01/16 06:19:15;;;;;;;2.60;1.30;;;6.30;64.50;;;;;;5012220;28;20575;-60
2023/01/16 06:21:40;;;;;;;2.57;1.40;;;6.50;59.40;;;;;;5005424;28;20341;-60
2023/01/16 06:24:06;;;;;;;1.93;1.70;;;6.80;60.40;;;;;;5005525;28;20994;-60
2023/01/16 06:26:32;;;;;;;1.53;1.40;;;7.30;59.60;;;;;;5004108;28;20194;-60
2023/01/16 06:28:57;;;;;;;2.10;1.10;;;7.50;57.70;;;;;;4999899;28;20444;-60
2023/01/16 06:31:23;;;;;;;2.00;1.17;;;7.40;56.80;;;;;;5002808;28;20268;-60
2023/01/16 06:33:50;;;;;;;2.83;1.33;;;7.50;58.10;;;;;;5000642;28;20667;-60
2023/01/16 06:36:15;;;;;;;1.70;1.20;;;7.30;56.00;;;;;;5010133;28;20795;-60
2023/01/16 06:38:41;;;;;;;3.27;1.40;;;7.40;57.10;;;;;;5009518;28;20500;-60
2023/01/16 06:41:06;;;;;;;2.60;1.20;;;7.50;56.60;;;;;;5008494;28;20197;-60
2023/01/16 06:43:32;;;;;;;1.60;1.43;;;7.50;56.20;;;;;;5004585;28;20197;-60
2023/01/16 06:45:58;;;;;;;2.60;1.30;;;7.60;56.40;;;;;;5010242;28;20539;-60
2023/01/16 06:48:23;;;;;;;1.83;1.40;;;7.60;55.80;;;;;;5008893;28;20693;-60
2023/01/16 06:50:49;;;;;;;2.27;1.33;;;7.50;56.20;;;;;;5001545;28;20200;-60
2023/01/16 06:53:15;;;;;;;2.53;1.23;;;7.30;55.60;;;;;;5007969;28;20655;-60
2023/01/16 06:55:41;;;;;;;1.40;1.30;;;7.10;56.00;;;;;;5007856;28;20198;-60
2023/01/16 06:58:08;;;;;;;4.17;1.93;;;7.00;56.40;;;;;;5006635;28;20500;-60
2023/01/16 07:00:34;;;;;;;3.43;1.83;;;6.80;56.60;;;;;;4998467;28;20434;-60
2023/01/16 07:03:01;;;;;;;2.40;1.80;;;6.80;57.70;;;;;;4999953;28;20440;-60
2023/01/16 07:05:28;;;;;;;1.63;1.30;;;6.70;57.40;;;;;;5008439;28;20474;-60
2023/01/16 07:07:59;;;;;;;1.90;1.53;;;6.50;57.30;;;;;;5001666;28;20444;-60
2023/01/16 07:10:28;;;;;;;2.33;1.13;;;6.30;57.50;;;;;;5005165;28;20576;-60
2023/01/16 07:12:57;;;;;;;2.23;1.47;;;6.40;58.20;;;;;;5002456;28;20449;-60
2023/01/16 07:23:47;;;;;;;2.00;1.50;;;6.70;56.60;;;;;;5011948;28;20867;-60
2023/01/16 07:26:15;;;;;;;2.10;0.93;;;6.80;57.10;;;;;;5010177;28;20921;-60
2023/01/16 07:28:41;;;;;;;4.03;1.30;;;6.70;56.60;;;;;;5007561;28;20921;-60
2023/01/16 07:31:07;;;;;;;2.60;1.50;;;6.70;56.90;;;;;;5012604;28;20473;-60
2023/01/16 07:33:33;;;;;;;2.07;1.43;;;7.00;56.70;;;;;;5003487;28;20202;-60
2023/01/16 07:35:59;;;;;;;2.40;1.70;;;7.50;56.00;;;;;;5010580;28;20777;-59
2023/01/16 07:38:25;;;;;;;4.43;1.80;;;8.20;53.60;;;;;;5010704;28;20236;-59
2023/01/16 07:40:50;;;;;;;2.40;1.40;;;9.40;51.90;;;;;;5006055;28;20823;-60
2023/01/16 07:43:16;;;;;;;2.10;1.70;;;10.00;48.30;;;;;;5004763;28;20198;-59
2023/01/16 07:45:42;;;;;;;3.93;1.50;;;10.50;47.60;;;;;;5004551;28;20195;-59
2023/01/16 07:48:07;;;;;;;3.27;1.37;;;10.40;47.90;;;;;;5011091;28;20241;-59
2023/01/16 07:50:33;;;;;;;1.70;1.60;;;10.00;48.00;;;;;;5005239;28;20568;-59
2023/01/16 07:52:58;;;;;;;3.53;1.17;;;9.20;49.40;;;;;;5006639;28;20198;-59
2023/01/16 07:55:25;;;;;;;2.40;1.40;;;8.50;51.00;;;;;;5007631;28;20201;-59
2023/01/16 07:57:50;;;;;;;3.67;2.23;;;7.90;52.30;;;;;;5011636;28;20221;-59
2023/01/16 08:00:16;;;;;;;1.93;1.70;;;7.80;53.70;;;;;;5005668;28;20450;-59
2023/01/16 08:02:42;;;;;;;1.73;1.30;;;7.90;54.10;;;;;;5003756;28;20268;-59
2023/01/16 08:05:09;;;;;;;3.00;1.47;;;7.80;53.90;;;;;;4997955;28;20627;-59
2023/01/16 08:07:35;;;;;;;2.00;1.40;;;7.80;54.00;;;;;;5003406;28;20182;-59
2023/01/16 08:10:00;;;;;;;2.20;1.50;;;8.20;54.00;;;;;;5009387;28;20463;-59
2023/01/16 08:12:26;;;;;;;3.00;1.80;;;8.50;53.00;;;;;;5008265;28;20190;-59
2023/01/16 08:14:51;;;;;;;3.97;1.63;;;8.50;52.30;;;;;;5008136;28;20281;-59
2023/01/16 08:17:17;;;;;;;6.60;1.90;;;8.40;52.50;;;;;;5008265;28;20236;-59
2023/01/16 08:19:42;;;;;;;4.03;1.40;;;8.10;52.30;;;;;;5001899;28;20273;-59
2023/01/16 08:22:08;;;;;;;3.50;1.20;;;8.00;53.20;;;;;;5010306;28;20659;-59
2023/01/16 08:24:34;;;;;;;1.73;1.60;;;8.20;53.10;;;;;;5006734;28;20190;-59
2023/01/16 08:26:59;;;;;;;2.30;1.53;;;8.30;52.60;;;;;;5008975;28;20224;-59
2023/01/16 08:29:25;;;;;;;2.17;1.20;;;8.30;52.80;;;;;;4997501;28;20278;-59
2023/01/16 08:31:51;;;;;;;1.60;1.33;;;8.30;52.20;;;;;;5007247;28;20565;-59
2023/01/16 08:34:17;;;;;;;3.83;1.40;;;8.30;53.00;;;;;;4998706;28;20442;-59
2023/01/16 08:36:43;;;;;;;1.47;1.37;;;8.30;52.10;;;;;;5000661;28;20221;-59
2023/01/16 08:39:10;;;;;;;2.50;1.10;;;8.30;52.60;;;;;;5006169;28;20517;-59
2023/01/16 08:52:49;;;;;;;3.10;1.57;;;8.50;52.20;;;;;;5007768;28;20525;-59
2023/01/16 08:55:15;;;;;;;4.20;2.23;;;8.50;52.10;;;;;;4996821;28;20806;-59
2023/01/16 08:57:40;;;;;;;2.70;2.10;;;8.50;51.70;;;;;;5011352;28;20332;-59
2023/01/16 09:00:07;;;;;;;2.20;2.00;;;8.50;51.20;;;;;;5011569;28;20202;-60
2023/01/16 09:02:35;;;;;;;1.23;1.10;;;8.70;51.00;;;;;;5009244;28;20202;-59
2023/01/16 09:05:01;;;;;;;2.40;1.10;;;8.80;49.60;;;;;;5008502;28;20441;-60
2023/01/16 09:07:28;;;;;;;1.50;1.40;;;8.50;50.00;;;;;;5006037;28;20803;-60
2023/01/16 09:09:54;;;;;;;2.40;1.07;;;8.50;50.30;;;;;;5010398;28;20243;-60
2023/01/16 09:15:04;;;;;;;1.37;1.10;;;8.60;50.10;;;;;;5007276;28;20704;-60
2023/01/16 09:17:30;;;;;;;1.50;1.40;;;8.60;49.90;;;;;;5011815;28;20484;-60
2023/01/16 09:19:56;;;;;;;1.00;0.90;;;8.40;50.00;;;;;;5010774;28;20448;-60
2023/01/16 09:22:21;;;;;;;1.77;1.10;;;8.20;50.40;;;;;;5014311;28;20209;-59
2023/01/16 09:24:47;;;;;;;2.23;1.60;;;8.30;50.20;;;;;;5010026;28;20197;-60
2023/01/16 09:27:13;;;;;;;2.90;1.50;;;8.50;50.40;;;;;;5011041;28;20248;-59
2023/01/16 09:29:39;;;;;;;2.67;1.30;;;8.60;49.30;;;;;;5009769;28;20198;-60
2023/01/16 09:32:08;;;;;;;1.63;1.33;;;8.60;49.50;;;;;;5010926;28;20445;-60
2023/01/16 09:34:38;;;;;;;2.60;1.10;;;8.80;48.60;;;;;;4995849;28;20437;-59
2023/01/16 09:37:05;;;;;;;1.40;1.30;;;8.90;47.50;;;;;;5013613;28;20894;-59
2023/01/16 09:39:31;;;;;;;1.27;0.97;;;9.10;46.00;;;;;;5012799;28;20437;-59
2023/01/16 09:44:50;;;;;;;3.63;0.80;;;8.90;45.30;;;;;;4995085;28;20433;-59
2023/01/16 09:47:18;;;;;;;1.30;0.67;;;8.80;44.70;;;;;;5005041;28;20493;-59
2023/01/16 09:49:59;;;;;;;1.17;0.83;;;8.80;45.30;;;;;;5007405;28;20441;-59
2023/01/16 09:58:35;;;;;;;0.73;0.70;;;8.40;46.20;;;;;;4998482;28;20517;-59
2023/01/16 10:01:33;;;;;;;0.60;0.60;;;8.70;45.70;;;;;;5000098;28;20445;-59
2023/01/16 10:04:16;;;;;;;0.77;0.70;;;8.60;45.60;;;;;;5008536;28;20532;-59
2023/01/16 10:06:56;;;;;;;1.10;1.00;;;8.70;45.60;;;;;;5005189;28;20782;-59
2023/01/16 10:09:36;;;;;;;0.77;0.77;;;8.80;45.20;;;;;;5000985;28;20523;-59
2023/01/16 10:12:08;;;;;;;1.00;0.83;;;9.10;45.20;;;;;;5003636;28;21168;-59
2023/01/16 10:14:53;;;;;;;1.63;0.90;;;9.40;44.70;;;;;;5001757;28;20530;-59
2023/01/16 10:17:33;;;;;;;0.87;0.70;;;9.30;43.80;;;;;;5008206;28;20484;-59
2023/01/16 10:20:24;;;;;;;0.80;0.80;;;9.30;44.10;;;;;;5009342;28;21003;-59
2023/01/16 10:23:01;;;;;;;0.90;0.70;;;9.20;43.60;;;;;;5003611;28;21062;-59
2023/01/16 10:25:39;;;;;;;2.60;0.90;;;9.10;43.40;;;;;;5001033;28;20440;-59
2023/01/16 10:28:39;;;;;;;2.13;1.60;;;9.00;42.70;;;;;;5002966;28;20451;-59
2023/01/16 10:31:22;;;;;;;1.27;1.00;;;8.90;42.70;;;;;;4993087;28;20945;-59
2023/01/16 10:33:56;;;;;;;1.07;0.70;;;8.70;43.10;;;;;;5009294;28;20453;-59
2023/01/16 10:36:27;;;;;;;2.63;1.33;;;8.50;43.00;;;;;;5001589;28;20456;-59
2023/01/16 10:38:58;;;;;;;1.03;0.97;;;8.50;43.70;;;;;;5005257;28;21137;-59
2023/01/16 10:50:19;;;;;;;0.80;0.73;;;8.10;43.20;;;;;;5008492;28;20484;-59
2023/01/16 10:52:46;;;;;;;0.77;0.77;;;8.50;43.10;;;;;;5007916;28;20467;-59
2023/01/16 10:55:13;;;;;;;1.03;0.70;;;8.70;42.80;;;;;;5001585;28;20461;-59
2023/01/16 10:57:52;;;;;;;0.60;0.60;;;8.90;41.90;;;;;;5001926;28;20473;-59
2023/01/16 11:00:27;;;;;;;0.77;0.77;;;9.20;42.10;;;;;;4994803;28;20453;-59
2023/01/16 11:03:00;;;;;;;0.87;0.87;;;9.50;42.70;;;;;;5007098;28;20480;-59
2023/01/16 11:05:35;;;;;;;0.70;0.70;;;9.60;44.00;;;;;;5009510;28;20467;-59
2023/01/16 11:08:11;;;;;;;3.03;0.70;;;9.60;44.50;;;;;;5008526;28;20440;-59
2023/01/16 11:10:39;;;;;;;1.00;0.97;;;9.70;43.00;;;;;;5011086;28;20626;-59
2023/01/16 11:18:48;;;;;;;1.60;0.70;;;9.40;44.60;;;;;;4996687;28;20544;-59
2023/01/16 11:21:29;;;;;;;1.10;1.00;;;9.50;45.50;;;;;;5005198;28;20445;-59
2023/01/16 11:24:11;;;;;;;1.00;0.70;;;9.70;46.90;;;;;;4995166;28;20206;-59
2023/01/16 11:26:37;;;;;;;1.50;0.63;;;9.80;45.60;;;;;;5009449;28;20451;-59
2023/01/16 11:29:04;;;;;;;1.23;0.70;;;9.40;45.00;;;;;;5002526;28;20460;-60
2023/01/16 11:31:30;;;;;;;0.90;0.80;;;9.60;44.70;;;;;;5008089;28;20495;-59
2023/01/16 11:34:04;;;;;;;0.77;0.70;;;9.20;44.20;;;;;;4997641;28;20447;-59
2023/01/16 11:36:33;;;;;;;3.80;1.00;;;9.00;49.50;;;;;;5002798;28;20453;-59
2023/01/16 11:38:59;;;;;;;1.43;0.90;;;9.00;51.80;;;;;;4997631;28;20500;-59
2023/01/16 11:41:36;;;;;;;3.17;0.90;;;9.20;51.90;;;;;;5008860;28;20454;-59
2023/01/16 11:47:09;;;;;;;0.83;0.83;;;9.40;51.60;;;;;;4995743;28;20491;-59
2023/01/16 11:49:49;;;;;;;1.33;0.80;;;9.40;51.00;;;;;;5009847;28;20440;-59
2023/01/16 11:52:26;;;;;;;1.07;0.77;;;9.60;50.80;;;;;;5005942;28;20960;-59
2023/01/16 11:55:03;;;;;;;2.20;0.60;;;9.20;50.80;;;;;;4998025;28;20441;-59
2023/01/16 11:57:49;;;;;;;1.93;0.80;;;9.10;52.40;;;;;;5005509;28;20484;-59
2023/01/16 12:00:38;;;;;;;1.60;0.93;;;8.90;53.40;;;;;;5002688;28;20532;-59
2023/01/16 12:03:21;;;;;;;0.70;0.70;;;9.00;53.70;;;;;;5006609;28;20818;-59
2023/01/16 12:06:00;;;;;;;2.80;0.70;;;9.20;53.60;;;;;;5000991;28;20790;-59
2023/01/16 12:08:40;;;;;;;1.33;0.93;;;9.20;53.20;;;;;;4996989;28;20856;-59
2023/01/16 12:11:14;;;;;;;1.00;1.00;;;9.10;53.10;;;;;;5004150;28;20455;-59
2023/01/16 12:17:18;;;;;;;0.83;0.80;;;9.40;52.40;;;;;;4998791;28;20995;-59
2023/01/16 12:19:58;;;;;;;0.67;0.67;;;9.50;52.20;;;;;;5002632;28;20461;-59
2023/01/16 12:22:41;;;;;;;1.20;1.00;;;9.80;52.10;;;;;;5007725;28;20951;-59
2023/01/16 12:25:37;;;;;;;0.80;0.80;;;9.50;51.50;;;;;;5000307;28;20464;-59
2023/01/16 12:28:22;;;;;;;1.50;0.80;;;9.60;52.40;;;;;;4999189;28;20938;-59
2023/01/16 12:31:38;;;;;;;0.70;0.60;;;9.70;52.10;;;;;;5008248;28;20441;-59
2023/01/16 12:34:21;;;;;;;0.60;0.60;;;9.80;52.10;;;;;;5008790;28;20467;-59
2023/01/16 12:36:56;;;;;;;1.40;0.73;;;10.00;51.30;;;;;;5008264;28;20449;-59
2023/01/16 12:39:59;;;;;;;0.60;0.60;;;10.20;50.90;;;;;;5010270;28;20460;-59
2023/01/16 12:45:48;;;;;;;1.00;0.80;;;10.10;50.60;;;;;;5003474;28;20966;-59
2023/01/16 12:48:19;;;;;;;1.27;0.80;;;10.10;50.90;;;;;;5007911;28;20512;-59
2023/01/16 12:50:51;;;;;;;0.73;0.70;;;9.90;51.80;;;;;;5002786;28;20893;-59
2023/01/16 12:53:57;;;;;;;1.30;0.90;;;10.00;51.20;;;;;;5003658;28;20437;-59
2023/01/16 12:56:29;;;;;;;0.80;0.80;;;10.20;51.20;;;;;;5001438;28;20507;-59
2023/01/16 12:59:06;;;;;;;0.97;0.77;;;9.70;52.30;;;;;;5011639;28;20566;-59
2023/01/16 13:01:39;;;;;;;1.33;0.70;;;9.80;52.50;;;;;;5005476;28;20448;-59
2023/01/16 13:04:18;;;;;;;0.70;0.60;;;10.00;51.70;;;;;;5008464;28;20448;-59
2023/01/16 13:06:58;;;;;;;1.00;0.77;;;10.00;51.70;;;;;;5000555;28;20445;-59
2023/01/16 13:09:49;;;;;;;0.80;0.80;;;10.10;51.20;;;;;;5003071;28;20511;-60
2023/01/16 13:15:17;;;;;;;1.20;1.10;;;10.20;51.50;;;;;;4997724;28;20452;-59
2023/01/16 13:17:50;;;;;;;0.93;0.93;;;10.30;51.30;;;;;;4993472;28;20495;-60
2023/01/16 13:20:19;;;;;;;0.87;0.70;;;10.50;51.10;;;;;;5000374;28;20524;-59
2023/01/16 13:22:53;;;;;;;1.20;1.10;;;10.40;50.90;;;;;;5004172;28;20449;-59
2023/01/16 13:25:30;;;;;;;2.70;1.40;;;10.40;50.80;;;;;;5009394;28;20492;-60
2023/01/16 13:28:02;;;;;;;1.30;1.17;;;10.50;51.00;;;;;;5002038;28;20444;-59
2023/01/16 13:30:27;;;;;;;1.90;1.23;;;10.40;51.00;;;;;;5005709;28;20456;-60
2023/01/16 13:33:04;;;;;;;0.90;0.90;;;10.70;51.10;;;;;;5013816;28;20425;-60
2023/01/16 13:35:50;;;;;;;1.20;1.10;;;10.80;50.70;;;;;;5010003;28;20197;-59
2023/01/16 13:38:53;;;;;;;1.63;0.80;;;11.00;50.50;;;;;;5004711;28;20550;-60
2023/01/16 13:41:24;;;;;;;1.10;0.87;;;10.70;49.90;;;;;;5025755;28;20460;-60
2023/01/16 13:46:53;;;;;;;1.07;0.97;;;10.90;50.80;;;;;;5013901;28;20830;-60
2023/01/16 13:49:22;;;;;;;0.70;0.70;;;11.00;50.50;;;;;;5009313;28;20474;-59
2023/01/16 13:51:50;;;;;;;0.70;0.60;;;10.90;50.40;;;;;;5011271;28;21015;-60
2023/01/16 13:54:24;;;;;;;0.70;0.70;;;10.90;49.90;;;;;;4998117;28;20544;-59
2023/01/16 13:57:00;;;;;;;0.87;0.70;;;11.00;50.30;;;;;;4998291;28;20488;-60
2023/01/16 13:59:52;;;;;;;0.60;0.60;;;11.10;50.30;;;;;;5004161;28;20488;-60
2023/01/16 14:02:37;;;;;;;0.97;0.57;;;11.40;49.60;;;;;;4999710;28;20798;-60
2023/01/16 14:05:37;;;;;;;0.80;0.80;;;11.70;48.90;;;;;;5012167;28;20436;-59
2023/01/16 14:11:23;;;;;;;1.30;0.60;;;11.60;48.30;;;;;;4994164;28;20550;-60
2023/01/16 14:14:09;;;;;;;0.80;0.60;;;11.60;48.00;;;;;;5006817;28;20452;-60
2023/01/16 14:16:38;;;;;;;1.00;0.70;;;11.20;48.80;;;;;;4993611;28;20525;-60
2023/01/16 14:19:13;;;;;;;0.87;0.87;;;11.20;49.20;;;;;;4999049;28;20531;-60
2023/01/16 14:24:25;;;;;;;0.50;0.50;;;11.70;48.60;;;;;;5006107;28;20469;-60
2023/01/16 14:26:55;;;;;;;1.07;0.97;;;11.50;47.90;;;;;;5003629;28;20432;-60
2023/01/16 14:29:34;;;;;;;1.27;0.80;;;11.60;48.00;;;;;;5001818;28;20209;-59